sensor_id;sensor_type;location;lat;lon;timestamp;P1;durP1;ratioP1;P2;durP2;ratioP2
52866;SDS011;38739;53.324;6.862;2023-05-07T00:01:42;35.72;;;25.27;;
52866;SDS011;38739;53.324;6.862;2023-05-07T00:04:08;35.72;;;25.92;;
52866;SDS011;38739;53.324;6.862;2023-05-07T00:06:34;36.50;;;25.73;;
52866;SDS011;38739;53.324;6.862;2023-05-07T00:08:59;33.53;;;25.70;;
52866;SDS011;38739;53.324;6.862;2023-05-07T00:11:26;36.25;;;26.08;;
52866;SDS011;38739;53.324;6.862;2023-05-07T00:13:52;34.83;;;25.77;;
52866;SDS011;38739;53.324;6.862;2023-05-07T00:16:18;36.67;;;26.73;;
52866;SDS011;38739;53.324;6.862;2023-05-07T00:18:43;32.45;;;24.42;;
52866;SDS011;38739;53.324;6.862;2023-05-07T00:21:10;36.58;;;26.48;;
52866;SDS011;38739;53.324;6.862;2023-05-07T00:23:36;37.38;;;26.63;;
52866;SDS011;38739;53.324;6.862;2023-05-07T00:26:02;41.55;;;28.77;;
52866;SDS011;38739;53.324;6.862;2023-05-07T00:28:28;39.05;;;29.58;;
52866;SDS011;38739;53.324;6.862;2023-05-07T00:30:54;41.50;;;28.42;;
52866;SDS011;38739;53.324;6.862;2023-05-07T00:33:20;45.40;;;29.15;;
52866;SDS011;38739;53.324;6.862;2023-05-07T00:35:47;40.72;;;29.92;;
52866;SDS011;38739;53.324;6.862;2023-05-07T00:38:13;43.70;;;29.67;;
52866;SDS011;38739;53.324;6.862;2023-05-07T00:40:39;47.40;;;31.02;;
52866;SDS011;38739;53.324;6.862;2023-05-07T00:43:05;44.45;;;30.15;;
52866;SDS011;38739;53.324;6.862;2023-05-07T00:45:32;44.50;;;30.38;;
52866;SDS011;38739;53.324;6.862;2023-05-07T00:47:59;41.97;;;29.50;;
52866;SDS011;38739;53.324;6.862;2023-05-07T00:50:26;40.75;;;28.05;;
52866;SDS011;38739;53.324;6.862;2023-05-07T00:52:53;42.22;;;29.98;;
52866;SDS011;38739;53.324;6.862;2023-05-07T00:55:20;40.20;;;27.85;;
52866;SDS011;38739;53.324;6.862;2023-05-07T00:57:46;42.25;;;29.48;;
52866;SDS011;38739;53.324;6.862;2023-05-07T01:00:12;43.60;;;30.25;;
52866;SDS011;38739;53.324;6.862;2023-05-07T01:02:38;44.95;;;30.23;;
52866;SDS011;38739;53.324;6.862;2023-05-07T01:05:05;42.65;;;30.77;;
52866;SDS011;38739;53.324;6.862;2023-05-07T01:07:33;43.58;;;30.95;;
52866;SDS011;38739;53.324;6.862;2023-05-07T01:10:00;46.42;;;30.92;;
52866;SDS011;38739;53.324;6.862;2023-05-07T01:12:26;49.78;;;33.10;;
52866;SDS011;38739;53.324;6.862;2023-05-07T01:14:53;50.13;;;33.53;;
52866;SDS011;38739;53.324;6.862;2023-05-07T01:17:19;50.03;;;33.55;;
52866;SDS011;38739;53.324;6.862;2023-05-07T01:19:45;53.22;;;33.83;;
52866;SDS011;38739;53.324;6.862;2023-05-07T01:22:12;50.78;;;33.30;;
52866;SDS011;38739;53.324;6.862;2023-05-07T01:24:41;49.28;;;32.45;;
52866;SDS011;38739;53.324;6.862;2023-05-07T01:27:07;52.38;;;36.08;;
52866;SDS011;38739;53.324;6.862;2023-05-07T01:29:33;51.95;;;35.03;;
52866;SDS011;38739;53.324;6.862;2023-05-07T01:31:59;58.17;;;37.78;;
52866;SDS011;38739;53.324;6.862;2023-05-07T01:34:27;58.50;;;37.83;;
52866;SDS011;38739;53.324;6.862;2023-05-07T01:36:55;56.90;;;36.33;;
52866;SDS011;38739;53.324;6.862;2023-05-07T01:39:26;55.28;;;36.70;;
52866;SDS011;38739;53.324;6.862;2023-05-07T01:41:54;52.83;;;35.58;;
52866;SDS011;38739;53.324;6.862;2023-05-07T01:44:21;49.47;;;33.65;;
52866;SDS011;38739;53.324;6.862;2023-05-07T01:46:48;47.15;;;32.70;;
52866;SDS011;38739;53.324;6.862;2023-05-07T01:49:14;48.10;;;32.90;;
52866;SDS011;38739;53.324;6.862;2023-05-07T01:51:41;49.92;;;32.85;;
52866;SDS011;38739;53.324;6.862;2023-05-07T01:54:07;47.33;;;33.08;;
52866;SDS011;38739;53.324;6.862;2023-05-07T01:56:33;50.20;;;34.53;;
52866;SDS011;38739;53.324;6.862;2023-05-07T01:58:59;49.22;;;34.50;;
52866;SDS011;38739;53.324;6.862;2023-05-07T02:01:25;54.15;;;36.80;;
52866;SDS011;38739;53.324;6.862;2023-05-07T02:03:51;55.17;;;37.53;;
52866;SDS011;38739;53.324;6.862;2023-05-07T02:06:17;56.70;;;37.72;;
52866;SDS011;38739;53.324;6.862;2023-05-07T02:08:43;55.40;;;36.88;;
52866;SDS011;38739;53.324;6.862;2023-05-07T02:11:09;52.83;;;35.40;;
52866;SDS011;38739;53.324;6.862;2023-05-07T02:13:35;51.13;;;32.78;;
52866;SDS011;38739;53.324;6.862;2023-05-07T02:16:01;48.65;;;31.90;;
52866;SDS011;38739;53.324;6.862;2023-05-07T02:18:27;45.97;;;31.35;;
52866;SDS011;38739;53.324;6.862;2023-05-07T02:20:53;44.65;;;29.73;;
52866;SDS011;38739;53.324;6.862;2023-05-07T02:23:18;43.05;;;29.52;;
52866;SDS011;38739;53.324;6.862;2023-05-07T02:25:44;43.15;;;28.35;;
52866;SDS011;38739;53.324;6.862;2023-05-07T02:28:11;43.75;;;29.60;;
52866;SDS011;38739;53.324;6.862;2023-05-07T02:30:37;47.35;;;30.23;;
52866;SDS011;38739;53.324;6.862;2023-05-07T02:33:03;43.83;;;30.45;;
52866;SDS011;38739;53.324;6.862;2023-05-07T02:35:28;47.58;;;30.17;;
52866;SDS011;38739;53.324;6.862;2023-05-07T02:37:54;44.05;;;29.60;;
52866;SDS011;38739;53.324;6.862;2023-05-07T02:40:20;49.92;;;31.10;;
52866;SDS011;38739;53.324;6.862;2023-05-07T02:42:46;51.72;;;33.10;;
52866;SDS011;38739;53.324;6.862;2023-05-07T02:45:12;54.03;;;34.45;;
52866;SDS011;38739;53.324;6.862;2023-05-07T02:47:39;62.08;;;38.95;;
52866;SDS011;38739;53.324;6.862;2023-05-07T02:50:05;62.67;;;40.17;;
52866;SDS011;38739;53.324;6.862;2023-05-07T02:52:31;63.25;;;39.75;;
52866;SDS011;38739;53.324;6.862;2023-05-07T02:54:57;59.65;;;37.85;;
52866;SDS011;38739;53.324;6.862;2023-05-07T02:57:22;58.65;;;37.28;;
52866;SDS011;38739;53.324;6.862;2023-05-07T02:59:48;60.00;;;38.88;;
52866;SDS011;38739;53.324;6.862;2023-05-07T03:02:14;59.85;;;38.28;;
52866;SDS011;38739;53.324;6.862;2023-05-07T03:04:39;63.72;;;40.50;;
52866;SDS011;38739;53.324;6.862;2023-05-07T03:07:06;64.88;;;42.00;;
52866;SDS011;38739;53.324;6.862;2023-05-07T03:09:31;66.13;;;42.58;;
52866;SDS011;38739;53.324;6.862;2023-05-07T03:11:57;60.92;;;41.47;;
52866;SDS011;38739;53.324;6.862;2023-05-07T03:14:23;65.45;;;41.55;;
52866;SDS011;38739;53.324;6.862;2023-05-07T03:16:49;65.18;;;43.63;;
52866;SDS011;38739;53.324;6.862;2023-05-07T03:19:15;65.90;;;41.75;;
52866;SDS011;38739;53.324;6.862;2023-05-07T03:21:41;63.03;;;40.33;;
52866;SDS011;38739;53.324;6.862;2023-05-07T03:24:06;57.25;;;39.00;;
52866;SDS011;38739;53.324;6.862;2023-05-07T03:26:32;54.65;;;36.35;;
52866;SDS011;38739;53.324;6.862;2023-05-07T03:28:58;56.17;;;34.85;;
52866;SDS011;38739;53.324;6.862;2023-05-07T03:31:24;54.17;;;35.60;;
52866;SDS011;38739;53.324;6.862;2023-05-07T03:33:53;51.17;;;33.35;;
52866;SDS011;38739;53.324;6.862;2023-05-07T03:36:21;51.67;;;32.97;;
52866;SDS011;38739;53.324;6.862;2023-05-07T03:38:47;50.03;;;32.38;;
52866;SDS011;38739;53.324;6.862;2023-05-07T03:41:14;55.50;;;35.33;;
52866;SDS011;38739;53.324;6.862;2023-05-07T03:43:39;54.53;;;34.75;;
52866;SDS011;38739;53.324;6.862;2023-05-07T03:46:05;51.50;;;33.33;;
52866;SDS011;38739;53.324;6.862;2023-05-07T03:48:31;52.17;;;33.97;;
52866;SDS011;38739;53.324;6.862;2023-05-07T03:50:57;56.08;;;35.22;;
52866;SDS011;38739;53.324;6.862;2023-05-07T03:53:23;54.20;;;34.92;;
52866;SDS011;38739;53.324;6.862;2023-05-07T03:55:49;58.65;;;37.55;;
52866;SDS011;38739;53.324;6.862;2023-05-07T03:58:15;60.05;;;38.42;;
52866;SDS011;38739;53.324;6.862;2023-05-07T04:00:41;61.72;;;39.65;;
52866;SDS011;38739;53.324;6.862;2023-05-07T04:03:07;57.70;;;38.85;;
52866;SDS011;38739;53.324;6.862;2023-05-07T04:05:33;52.88;;;35.75;;
52866;SDS011;38739;53.324;6.862;2023-05-07T04:07:59;51.40;;;34.85;;
52866;SDS011;38739;53.324;6.862;2023-05-07T04:10:25;50.85;;;34.00;;
52866;SDS011;38739;53.324;6.862;2023-05-07T04:12:51;51.35;;;34.13;;
52866;SDS011;38739;53.324;6.862;2023-05-07T04:15:16;45.65;;;32.38;;
52866;SDS011;38739;53.324;6.862;2023-05-07T04:17:42;50.45;;;34.13;;
52866;SDS011;38739;53.324;6.862;2023-05-07T04:20:08;55.47;;;34.75;;
52866;SDS011;38739;53.324;6.862;2023-05-07T04:22:35;44.53;;;31.00;;
52866;SDS011;38739;53.324;6.862;2023-05-07T04:25:02;47.83;;;32.28;;
52866;SDS011;38739;53.324;6.862;2023-05-07T04:27:29;44.50;;;31.23;;
52866;SDS011;38739;53.324;6.862;2023-05-07T04:29:54;47.63;;;32.80;;
52866;SDS011;38739;53.324;6.862;2023-05-07T04:32:23;48.40;;;33.47;;
52866;SDS011;38739;53.324;6.862;2023-05-07T04:34:50;51.00;;;34.25;;
52866;SDS011;38739;53.324;6.862;2023-05-07T04:37:15;55.05;;;36.05;;
52866;SDS011;38739;53.324;6.862;2023-05-07T04:39:42;57.00;;;36.88;;
52866;SDS011;38739;53.324;6.862;2023-05-07T04:42:07;50.05;;;35.25;;
52866;SDS011;38739;53.324;6.862;2023-05-07T04:44:34;54.67;;;35.78;;
52866;SDS011;38739;53.324;6.862;2023-05-07T04:47:02;48.47;;;33.53;;
52866;SDS011;38739;53.324;6.862;2023-05-07T04:49:27;50.55;;;33.92;;
52866;SDS011;38739;53.324;6.862;2023-05-07T04:51:53;49.15;;;34.63;;
52866;SDS011;38739;53.324;6.862;2023-05-07T04:54:18;47.15;;;31.88;;
52866;SDS011;38739;53.324;6.862;2023-05-07T04:56:44;45.72;;;32.00;;
52866;SDS011;38739;53.324;6.862;2023-05-07T04:59:10;45.50;;;30.25;;
52866;SDS011;38739;53.324;6.862;2023-05-07T05:01:36;42.03;;;29.50;;
52866;SDS011;38739;53.324;6.862;2023-05-07T05:04:01;40.53;;;28.20;;
52866;SDS011;38739;53.324;6.862;2023-05-07T05:06:27;42.53;;;28.35;;
52866;SDS011;38739;53.324;6.862;2023-05-07T05:08:53;38.72;;;27.58;;
52866;SDS011;38739;53.324;6.862;2023-05-07T05:11:19;37.40;;;27.27;;
52866;SDS011;38739;53.324;6.862;2023-05-07T05:13:45;36.35;;;26.88;;
52866;SDS011;38739;53.324;6.862;2023-05-07T05:16:14;38.67;;;27.33;;
52866;SDS011;38739;53.324;6.862;2023-05-07T05:18:39;40.03;;;27.58;;
52866;SDS011;38739;53.324;6.862;2023-05-07T05:21:05;37.17;;;28.08;;
52866;SDS011;38739;53.324;6.862;2023-05-07T05:23:31;44.95;;;30.75;;
52866;SDS011;38739;53.324;6.862;2023-05-07T05:25:57;47.25;;;32.50;;
52866;SDS011;38739;53.324;6.862;2023-05-07T05:28:23;47.78;;;33.30;;
52866;SDS011;38739;53.324;6.862;2023-05-07T05:30:49;48.88;;;32.72;;
52866;SDS011;38739;53.324;6.862;2023-05-07T05:33:15;43.45;;;31.33;;
52866;SDS011;38739;53.324;6.862;2023-05-07T05:35:41;44.92;;;29.85;;
52866;SDS011;38739;53.324;6.862;2023-05-07T05:38:07;40.95;;;29.50;;
52866;SDS011;38739;53.324;6.862;2023-05-07T05:40:33;39.30;;;28.33;;
52866;SDS011;38739;53.324;6.862;2023-05-07T05:42:59;39.50;;;29.00;;
52866;SDS011;38739;53.324;6.862;2023-05-07T05:45:25;40.33;;;28.80;;
52866;SDS011;38739;53.324;6.862;2023-05-07T05:47:50;41.40;;;27.65;;
52866;SDS011;38739;53.324;6.862;2023-05-07T05:50:16;42.47;;;28.67;;
52866;SDS011;38739;53.324;6.862;2023-05-07T05:52:42;38.00;;;26.63;;
52866;SDS011;38739;53.324;6.862;2023-05-07T05:55:08;41.13;;;27.02;;
52866;SDS011;38739;53.324;6.862;2023-05-07T05:57:34;36.78;;;27.00;;
52866;SDS011;38739;53.324;6.862;2023-05-07T06:00:00;40.28;;;27.17;;
52866;SDS011;38739;53.324;6.862;2023-05-07T06:02:27;38.95;;;26.70;;
52866;SDS011;38739;53.324;6.862;2023-05-07T06:04:53;36.50;;;25.60;;
52866;SDS011;38739;53.324;6.862;2023-05-07T06:07:19;35.47;;;24.63;;
52866;SDS011;38739;53.324;6.862;2023-05-07T06:09:45;35.05;;;25.25;;
52866;SDS011;38739;53.324;6.862;2023-05-07T06:12:11;34.47;;;25.00;;
52866;SDS011;38739;53.324;6.862;2023-05-07T06:14:37;40.65;;;27.83;;
52866;SDS011;38739;53.324;6.862;2023-05-07T06:17:02;41.92;;;30.13;;
52866;SDS011;38739;53.324;6.862;2023-05-07T06:19:28;44.13;;;29.65;;
52866;SDS011;38739;53.324;6.862;2023-05-07T06:21:54;43.15;;;29.83;;
52866;SDS011;38739;53.324;6.862;2023-05-07T06:24:21;43.92;;;29.95;;
52866;SDS011;38739;53.324;6.862;2023-05-07T06:26:47;47.65;;;31.90;;
52866;SDS011;38739;53.324;6.862;2023-05-07T06:29:13;48.00;;;33.00;;
52866;SDS011;38739;53.324;6.862;2023-05-07T06:31:39;48.65;;;33.72;;
52866;SDS011;38739;53.324;6.862;2023-05-07T06:34:05;49.83;;;33.28;;
52866;SDS011;38739;53.324;6.862;2023-05-07T06:36:31;48.40;;;32.15;;
52866;SDS011;38739;53.324;6.862;2023-05-07T06:38:56;46.60;;;31.23;;
52866;SDS011;38739;53.324;6.862;2023-05-07T06:41:22;41.00;;;29.92;;
52866;SDS011;38739;53.324;6.862;2023-05-07T06:43:48;44.83;;;29.75;;
52866;SDS011;38739;53.324;6.862;2023-05-07T06:46:14;44.55;;;29.77;;
52866;SDS011;38739;53.324;6.862;2023-05-07T06:48:40;45.72;;;29.85;;
52866;SDS011;38739;53.324;6.862;2023-05-07T06:51:05;46.28;;;29.83;;
52866;SDS011;38739;53.324;6.862;2023-05-07T06:53:31;45.22;;;30.05;;
52866;SDS011;38739;53.324;6.862;2023-05-07T06:55:56;47.70;;;29.65;;
52866;SDS011;38739;53.324;6.862;2023-05-07T06:58:22;43.40;;;29.83;;
52866;SDS011;38739;53.324;6.862;2023-05-07T07:00:48;45.58;;;31.00;;
52866;SDS011;38739;53.324;6.862;2023-05-07T07:03:14;48.78;;;31.23;;
52866;SDS011;38739;53.324;6.862;2023-05-07T07:05:40;49.30;;;31.48;;
52866;SDS011;38739;53.324;6.862;2023-05-07T07:08:07;48.38;;;31.27;;
52866;SDS011;38739;53.324;6.862;2023-05-07T07:10:32;45.35;;;30.88;;
52866;SDS011;38739;53.324;6.862;2023-05-07T07:12:58;44.63;;;30.27;;
52866;SDS011;38739;53.324;6.862;2023-05-07T07:15:24;43.85;;;29.15;;
52866;SDS011;38739;53.324;6.862;2023-05-07T07:17:50;43.03;;;28.63;;
52866;SDS011;38739;53.324;6.862;2023-05-07T07:20:16;44.03;;;29.13;;
52866;SDS011;38739;53.324;6.862;2023-05-07T07:22:42;46.15;;;31.35;;
52866;SDS011;38739;53.324;6.862;2023-05-07T07:25:07;43.60;;;31.00;;
52866;SDS011;38739;53.324;6.862;2023-05-07T07:27:34;45.67;;;30.52;;
52866;SDS011;38739;53.324;6.862;2023-05-07T07:30:00;44.03;;;30.00;;
52866;SDS011;38739;53.324;6.862;2023-05-07T07:32:25;49.45;;;31.92;;
52866;SDS011;38739;53.324;6.862;2023-05-07T07:34:51;45.63;;;31.25;;
52866;SDS011;38739;53.324;6.862;2023-05-07T07:37:17;48.70;;;30.88;;
52866;SDS011;38739;53.324;6.862;2023-05-07T07:39:42;49.03;;;30.73;;
52866;SDS011;38739;53.324;6.862;2023-05-07T07:42:08;41.83;;;28.33;;
52866;SDS011;38739;53.324;6.862;2023-05-07T07:44:34;43.53;;;29.52;;
52866;SDS011;38739;53.324;6.862;2023-05-07T07:46:59;48.65;;;32.45;;
52866;SDS011;38739;53.324;6.862;2023-05-07T07:49:26;49.70;;;32.53;;
52866;SDS011;38739;53.324;6.862;2023-05-07T07:51:52;49.22;;;32.97;;
52866;SDS011;38739;53.324;6.862;2023-05-07T07:54:17;49.38;;;34.78;;
52866;SDS011;38739;53.324;6.862;2023-05-07T07:56:43;53.40;;;33.95;;
52866;SDS011;38739;53.324;6.862;2023-05-07T07:59:09;49.17;;;34.03;;
52866;SDS011;38739;53.324;6.862;2023-05-07T08:01:34;47.75;;;32.15;;
52866;SDS011;38739;53.324;6.862;2023-05-07T08:04:00;45.50;;;31.65;;
52866;SDS011;38739;53.324;6.862;2023-05-07T08:06:28;47.38;;;31.55;;
52866;SDS011;38739;53.324;6.862;2023-05-07T08:08:54;46.58;;;31.85;;
52866;SDS011;38739;53.324;6.862;2023-05-07T08:11:20;48.75;;;32.47;;
52866;SDS011;38739;53.324;6.862;2023-05-07T08:13:46;51.30;;;34.80;;
52866;SDS011;38739;53.324;6.862;2023-05-07T08:16:12;48.15;;;34.20;;
52866;SDS011;38739;53.324;6.862;2023-05-07T08:18:38;49.40;;;33.53;;
52866;SDS011;38739;53.324;6.862;2023-05-07T08:21:04;51.83;;;35.95;;
52866;SDS011;38739;53.324;6.862;2023-05-07T08:23:29;50.35;;;35.85;;
52866;SDS011;38739;53.324;6.862;2023-05-07T08:25:55;52.05;;;36.47;;
52866;SDS011;38739;53.324;6.862;2023-05-07T08:28:21;53.72;;;38.58;;
52866;SDS011;38739;53.324;6.862;2023-05-07T08:30:47;54.72;;;37.72;;
52866;SDS011;38739;53.324;6.862;2023-05-07T08:33:12;54.50;;;37.03;;
52866;SDS011;38739;53.324;6.862;2023-05-07T08:35:38;54.42;;;37.30;;
52866;SDS011;38739;53.324;6.862;2023-05-07T08:38:04;53.80;;;37.40;;
52866;SDS011;38739;53.324;6.862;2023-05-07T08:40:30;53.75;;;37.45;;
52866;SDS011;38739;53.324;6.862;2023-05-07T08:43:01;50.20;;;35.33;;
52866;SDS011;38739;53.324;6.862;2023-05-07T08:45:28;49.03;;;36.65;;
52866;SDS011;38739;53.324;6.862;2023-05-07T08:47:58;50.28;;;35.38;;
52866;SDS011;38739;53.324;6.862;2023-05-07T08:50:25;46.10;;;33.60;;
52866;SDS011;38739;53.324;6.862;2023-05-07T08:52:51;49.05;;;36.45;;
52866;SDS011;38739;53.324;6.862;2023-05-07T08:55:17;47.75;;;35.65;;
52866;SDS011;38739;53.324;6.862;2023-05-07T08:57:43;46.67;;;35.67;;
52866;SDS011;38739;53.324;6.862;2023-05-07T09:00:09;46.72;;;35.28;;
52866;SDS011;38739;53.324;6.862;2023-05-07T09:02:36;49.05;;;36.00;;
52866;SDS011;38739;53.324;6.862;2023-05-07T09:05:02;50.65;;;37.40;;
52866;SDS011;38739;53.324;6.862;2023-05-07T09:07:28;48.58;;;36.67;;
52866;SDS011;38739;53.324;6.862;2023-05-07T09:09:55;49.25;;;38.58;;
52866;SDS011;38739;53.324;6.862;2023-05-07T09:12:22;54.30;;;40.38;;
52866;SDS011;38739;53.324;6.862;2023-05-07T09:14:48;47.78;;;37.70;;
52866;SDS011;38739;53.324;6.862;2023-05-07T09:17:17;46.30;;;37.00;;
52866;SDS011;38739;53.324;6.862;2023-05-07T09:19:46;49.50;;;37.50;;
52866;SDS011;38739;53.324;6.862;2023-05-07T09:22:12;46.60;;;37.25;;
52866;SDS011;38739;53.324;6.862;2023-05-07T09:24:39;46.92;;;37.22;;
52866;SDS011;38739;53.324;6.862;2023-05-07T09:27:05;47.97;;;38.13;;
52866;SDS011;38739;53.324;6.862;2023-05-07T09:29:31;49.20;;;39.92;;
52866;SDS011;38739;53.324;6.862;2023-05-07T09:32:07;49.22;;;38.92;;
52866;SDS011;38739;53.324;6.862;2023-05-07T09:34:34;50.03;;;41.45;;
52866;SDS011;38739;53.324;6.862;2023-05-07T09:37:00;48.70;;;40.42;;
52866;SDS011;38739;53.324;6.862;2023-05-07T09:39:46;46.60;;;39.03;;
52866;SDS011;38739;53.324;6.862;2023-05-07T09:42:13;47.47;;;39.50;;
52866;SDS011;38739;53.324;6.862;2023-05-07T09:44:43;45.42;;;38.97;;
52866;SDS011;38739;53.324;6.862;2023-05-07T09:47:09;47.42;;;38.75;;
52866;SDS011;38739;53.324;6.862;2023-05-07T09:49:37;46.33;;;39.10;;
52866;SDS011;38739;53.324;6.862;2023-05-07T09:52:05;43.78;;;38.40;;
52866;SDS011;38739;53.324;6.862;2023-05-07T09:54:34;44.72;;;38.47;;
52866;SDS011;38739;53.324;6.862;2023-05-07T09:57:04;43.60;;;37.22;;
52866;SDS011;38739;53.324;6.862;2023-05-07T09:59:31;39.90;;;35.42;;
52866;SDS011;38739;53.324;6.862;2023-05-07T10:01:58;42.10;;;36.67;;
52866;SDS011;38739;53.324;6.862;2023-05-07T10:04:25;42.70;;;37.20;;
52866;SDS011;38739;53.324;6.862;2023-05-07T10:06:52;42.50;;;37.40;;
52866;SDS011;38739;53.324;6.862;2023-05-07T10:09:19;39.35;;;35.03;;
52866;SDS011;38739;53.324;6.862;2023-05-07T10:11:45;42.65;;;36.03;;
52866;SDS011;38739;53.324;6.862;2023-05-07T10:14:12;41.95;;;36.95;;
52866;SDS011;38739;53.324;6.862;2023-05-07T10:16:39;40.53;;;36.10;;
52866;SDS011;38739;53.324;6.862;2023-05-07T10:19:06;43.25;;;38.17;;
52866;SDS011;38739;53.324;6.862;2023-05-07T10:21:39;43.35;;;38.65;;
52866;SDS011;38739;53.324;6.862;2023-05-07T10:24:10;42.53;;;37.85;;
52866;SDS011;38739;53.324;6.862;2023-05-07T10:26:42;42.60;;;37.95;;
52866;SDS011;38739;53.324;6.862;2023-05-07T10:34:39;46.60;;;40.63;;
52866;SDS011;38739;53.324;6.862;2023-05-07T10:37:08;46.92;;;41.53;;
52866;SDS011;38739;53.324;6.862;2023-05-07T10:39:35;44.10;;;39.35;;
52866;SDS011;38739;53.324;6.862;2023-05-07T10:42:11;43.35;;;38.60;;
52866;SDS011;38739;53.324;6.862;2023-05-07T10:44:38;40.95;;;34.92;;
52866;SDS011;38739;53.324;6.862;2023-05-07T10:47:07;41.80;;;36.38;;
52866;SDS011;38739;53.324;6.862;2023-05-07T10:50:20;39.30;;;35.10;;
52866;SDS011;38739;53.324;6.862;2023-05-07T10:52:21;37.13;;;32.13;;
52866;SDS011;38739;53.324;6.862;2023-05-07T10:57:42;35.40;;;31.58;;
52866;SDS011;38739;53.324;6.862;2023-05-07T11:05:28;40.33;;;35.80;;
52866;SDS011;38739;53.324;6.862;2023-05-07T11:07:56;37.35;;;33.30;;
52866;SDS011;38739;53.324;6.862;2023-05-07T11:13:12;37.10;;;33.08;;
52866;SDS011;38739;53.324;6.862;2023-05-07T11:15:40;36.25;;;32.35;;
52866;SDS011;38739;53.324;6.862;2023-05-07T11:18:08;35.88;;;32.03;;
52866;SDS011;38739;53.324;6.862;2023-05-07T11:20:53;36.13;;;30.13;;
52866;SDS011;38739;53.324;6.862;2023-05-07T11:26:05;36.35;;;32.60;;
52866;SDS011;38739;53.324;6.862;2023-05-07T11:28:36;38.08;;;34.10;;
52866;SDS011;38739;53.324;6.862;2023-05-07T11:31:03;39.53;;;35.33;;
52866;SDS011;38739;53.324;6.862;2023-05-07T11:33:29;41.20;;;36.90;;
52866;SDS011;38739;53.324;6.862;2023-05-07T11:35:56;40.22;;;35.92;;
52866;SDS011;38739;53.324;6.862;2023-05-07T11:38:22;39.75;;;35.55;;
52866;SDS011;38739;53.324;6.862;2023-05-07T11:40:53;42.53;;;38.03;;
52866;SDS011;38739;53.324;6.862;2023-05-07T11:43:21;42.72;;;38.22;;
52866;SDS011;38739;53.324;6.862;2023-05-07T11:45:47;40.63;;;36.42;;
52866;SDS011;38739;53.324;6.862;2023-05-07T11:48:13;39.00;;;35.00;;
52866;SDS011;38739;53.324;6.862;2023-05-07T11:50:53;39.17;;;35.05;;
52866;SDS011;38739;53.324;6.862;2023-05-07T11:53:27;39.78;;;35.67;;
52866;SDS011;38739;53.324;6.862;2023-05-07T11:56:00;40.05;;;36.05;;
52866;SDS011;38739;53.324;6.862;2023-05-07T11:58:26;39.25;;;35.17;;
52866;SDS011;38739;53.324;6.862;2023-05-07T12:00:52;38.88;;;34.65;;
52866;SDS011;38739;53.324;6.862;2023-05-07T12:03:19;36.10;;;32.55;;
52866;SDS011;38739;53.324;6.862;2023-05-07T12:05:45;37.63;;;33.92;;
52866;SDS011;38739;53.324;6.862;2023-05-07T12:08:18;39.45;;;35.45;;
52866;SDS011;38739;53.324;6.862;2023-05-07T12:10:45;37.97;;;34.17;;
52866;SDS011;38739;53.324;6.862;2023-05-07T12:13:16;37.38;;;33.58;;
52866;SDS011;38739;53.324;6.862;2023-05-07T12:15:46;35.90;;;32.42;;
52866;SDS011;38739;53.324;6.862;2023-05-07T12:18:20;33.67;;;30.48;;
52866;SDS011;38739;53.324;6.862;2023-05-07T12:20:46;33.28;;;29.88;;
52866;SDS011;38739;53.324;6.862;2023-05-07T12:23:12;30.20;;;27.42;;
52866;SDS011;38739;53.324;6.862;2023-05-07T12:25:39;28.00;;;25.30;;
52866;SDS011;38739;53.324;6.862;2023-05-07T12:28:14;23.90;;;21.67;;
52866;SDS011;38739;53.324;6.862;2023-05-07T12:30:45;25.23;;;22.83;;
52866;SDS011;38739;53.324;6.862;2023-05-07T12:33:16;26.55;;;24.20;;
52866;SDS011;38739;53.324;6.862;2023-05-07T12:35:43;28.10;;;25.50;;
52866;SDS011;38739;53.324;6.862;2023-05-07T12:38:10;29.58;;;26.88;;
52866;SDS011;38739;53.324;6.862;2023-05-07T12:43:14;27.38;;;24.85;;
52866;SDS011;38739;53.324;6.862;2023-05-07T12:45:42;29.55;;;26.92;;
52866;SDS011;38739;53.324;6.862;2023-05-07T12:48:09;32.35;;;29.38;;
52866;SDS011;38739;53.324;6.862;2023-05-07T12:50:35;30.20;;;27.40;;
52866;SDS011;38739;53.324;6.862;2023-05-07T12:53:03;29.13;;;26.40;;
52866;SDS011;38739;53.324;6.862;2023-05-07T12:55:31;28.25;;;25.75;;
52866;SDS011;38739;53.324;6.862;2023-05-07T12:58:00;26.05;;;23.77;;
52866;SDS011;38739;53.324;6.862;2023-05-07T13:00:33;26.58;;;24.08;;
52866;SDS011;38739;53.324;6.862;2023-05-07T13:03:02;24.50;;;22.38;;
52866;SDS011;38739;53.324;6.862;2023-05-07T13:05:28;27.15;;;24.67;;
52866;SDS011;38739;53.324;6.862;2023-05-07T13:07:58;28.73;;;26.13;;
52866;SDS011;38739;53.324;6.862;2023-05-07T13:10:24;28.27;;;25.77;;
52866;SDS011;38739;53.324;6.862;2023-05-07T13:12:50;24.85;;;22.75;;
52866;SDS011;38739;53.324;6.862;2023-05-07T13:15:17;23.42;;;21.33;;
52866;SDS011;38739;53.324;6.862;2023-05-07T13:17:43;26.33;;;23.95;;
52866;SDS011;38739;53.324;6.862;2023-05-07T13:20:09;25.15;;;22.88;;
52866;SDS011;38739;53.324;6.862;2023-05-07T13:22:35;23.30;;;21.15;;
52866;SDS011;38739;53.324;6.862;2023-05-07T13:25:01;23.35;;;21.25;;
52866;SDS011;38739;53.324;6.862;2023-05-07T13:27:27;21.67;;;19.83;;
52866;SDS011;38739;53.324;6.862;2023-05-07T13:29:52;21.48;;;19.67;;
52866;SDS011;38739;53.324;6.862;2023-05-07T13:32:18;21.65;;;19.65;;
52866;SDS011;38739;53.324;6.862;2023-05-07T13:34:44;21.65;;;19.85;;
52866;SDS011;38739;53.324;6.862;2023-05-07T13:37:09;22.42;;;20.52;;
52866;SDS011;38739;53.324;6.862;2023-05-07T13:39:35;20.75;;;18.95;;
52866;SDS011;38739;53.324;6.862;2023-05-07T13:42:01;23.05;;;21.02;;
52866;SDS011;38739;53.324;6.862;2023-05-07T13:44:27;20.67;;;18.95;;
52866;SDS011;38739;53.324;6.862;2023-05-07T13:46:53;21.02;;;19.23;;
52866;SDS011;38739;53.324;6.862;2023-05-07T13:49:18;19.05;;;17.42;;
52866;SDS011;38739;53.324;6.862;2023-05-07T13:51:44;19.80;;;18.17;;
52866;SDS011;38739;53.324;6.862;2023-05-07T13:54:10;20.23;;;18.42;;
52866;SDS011;38739;53.324;6.862;2023-05-07T13:56:36;17.40;;;15.80;;
52866;SDS011;38739;53.324;6.862;2023-05-07T13:59:02;19.60;;;18.00;;
52866;SDS011;38739;53.324;6.862;2023-05-07T14:01:28;19.27;;;17.48;;
52866;SDS011;38739;53.324;6.862;2023-05-07T14:03:54;18.35;;;16.75;;
52866;SDS011;38739;53.324;6.862;2023-05-07T14:06:20;18.70;;;17.08;;
52866;SDS011;38739;53.324;6.862;2023-05-07T14:08:46;17.77;;;16.17;;
52866;SDS011;38739;53.324;6.862;2023-05-07T14:11:12;18.02;;;16.35;;
52866;SDS011;38739;53.324;6.862;2023-05-07T14:13:38;18.20;;;16.55;;
52866;SDS011;38739;53.324;6.862;2023-05-07T14:16:04;16.20;;;14.82;;
52866;SDS011;38739;53.324;6.862;2023-05-07T14:18:29;17.05;;;15.48;;
52866;SDS011;38739;53.324;6.862;2023-05-07T14:20:55;16.10;;;14.80;;
52866;SDS011;38739;53.324;6.862;2023-05-07T14:23:21;16.52;;;15.02;;
52866;SDS011;38739;53.324;6.862;2023-05-07T14:25:51;16.27;;;14.88;;
52866;SDS011;38739;53.324;6.862;2023-05-07T14:28:17;15.40;;;14.00;;
52866;SDS011;38739;53.324;6.862;2023-05-07T14:30:43;15.57;;;13.98;;
52866;SDS011;38739;53.324;6.862;2023-05-07T14:33:09;15.95;;;14.43;;
52866;SDS011;38739;53.324;6.862;2023-05-07T14:35:35;14.50;;;13.23;;
52866;SDS011;38739;53.324;6.862;2023-05-07T14:38:01;13.85;;;12.45;;
52866;SDS011;38739;53.324;6.862;2023-05-07T14:40:26;13.57;;;12.48;;